Time;durP1;ratioP1;P1;durP2;ratioP2;P2;SDS_P1;SDS_P2;PMS_P1;PMS_P2;Temp;Humidity;BMP_temperature;BMP_pressure;BME280_temperature;BME280_humidity;BME280_pressure;Samples;Min_cycle;Max_cycle;Signal;HPM_P1;HPM_P2
2021/06/11 00:01:56;;;;;;;4.20;3.00;;;15.10;82.20;;;;;;5070688;28;20111;-82
2021/06/11 00:04:22;;;;;;;5.10;2.85;;;15.10;82.20;;;;;;5070909;28;20060;-82
2021/06/11 00:06:47;;;;;;;4.32;3.17;;;15.10;82.40;;;;;;5054527;28;20104;-83
2021/06/11 00:09:17;;;;;;;4.28;3.00;;;15.10;82.40;;;;;;5054316;28;20597;-82
2021/06/11 00:11:44;;;;;;;4.72;3.42;;;15.10;82.10;;;;;;5072091;28;20017;-82
2021/06/11 00:14:11;;;;;;;4.20;3.20;;;15.00;82.10;;;;;;5056591;28;20028;-83
2021/06/11 00:16:37;;;;;;;4.90;3.40;;;14.90;82.70;;;;;;5056611;28;20956;-83
2021/06/11 00:19:02;;;;;;;3.90;3.50;;;14.80;84.10;;;;;;5073315;28;20089;-83
2021/06/11 00:21:28;;;;;;;5.45;4.03;;;14.80;84.40;;;;;;5069707;28;20029;-84
2021/06/11 00:23:54;;;;;;;5.10;3.10;;;14.90;84.30;;;;;;5077180;28;20040;-82
2021/06/11 00:26:20;;;;;;;6.70;3.70;;;14.90;84.00;;;;;;5071706;28;20091;-82
2021/06/11 00:28:46;;;;;;;5.68;2.92;;;14.80;84.20;;;;;;5056172;28;20471;-83
2021/06/11 00:31:11;;;;;;;7.78;3.08;;;14.90;83.70;;;;;;5051586;28;20040;-82
2021/06/11 00:33:37;;;;;;;4.80;3.50;;;14.80;83.00;;;;;;5048057;28;20112;-81
2021/06/11 00:36:03;;;;;;;4.50;3.28;;;14.70;82.80;;;;;;5064487;28;20032;-81
2021/06/11 00:38:31;;;;;;;6.28;3.15;;;14.70;82.50;;;;;;5051634;28;20035;-81
2021/06/11 00:40:57;;;;;;;3.47;3.00;;;14.70;82.60;;;;;;5065761;28;20044;-81
2021/06/11 00:43:23;;;;;;;4.03;3.17;;;14.70;82.90;;;;;;5060717;28;20028;-82
2021/06/11 00:45:48;;;;;;;5.28;3.20;;;14.60;83.60;;;;;;5052921;28;20398;-81
2021/06/11 00:48:17;;;;;;;4.65;3.50;;;14.50;83.80;;;;;;5051380;28;20500;-82
2021/06/11 00:50:43;;;;;;;4.43;3.30;;;14.60;84.20;;;;;;5052873;28;20029;-83
2021/06/11 00:53:10;;;;;;;4.68;3.80;;;14.50;84.60;;;;;;5053059;28;20451;-82
2021/06/11 00:55:37;;;;;;;6.70;3.58;;;14.40;84.20;;;;;;5054742;28;20111;-83
2021/06/11 00:58:03;;;;;;;4.83;3.73;;;14.40;85.30;;;;;;5050619;28;20703;-82
2021/06/11 01:00:29;;;;;;;5.57;3.28;;;14.20;87.30;;;;;;5053742;28;20314;-82
2021/06/11 01:02:55;;;;;;;5.35;4.20;;;14.20;87.70;;;;;;5056553;28;20028;-82
2021/06/11 01:05:21;;;;;;;5.63;3.92;;;14.30;87.70;;;;;;5059456;28;20427;-83
2021/06/11 01:07:50;;;;;;;5.28;3.78;;;14.20;87.20;;;;;;5057100;28;20124;-84
2021/06/11 01:10:17;;;;;;;4.28;3.22;;;14.20;86.90;;;;;;5074779;28;20016;-83
2021/06/11 01:12:43;;;;;;;5.30;4.00;;;14.20;86.70;;;;;;5054104;28;20020;-83
2021/06/11 01:15:11;;;;;;;5.68;3.60;;;14.20;86.90;;;;;;5050859;28;20055;-83
2021/06/11 01:17:37;;;;;;;3.17;2.65;;;14.20;86.80;;;;;;5057149;28;20522;-83
2021/06/11 01:20:09;;;;;;;4.05;3.17;;;14.30;85.40;;;;;;5053880;28;20028;-84
2021/06/11 01:23:12;;;;;;;4.43;3.78;;;14.30;85.00;;;;;;5069088;28;20153;-82
2021/06/11 01:26:09;;;;;;;3.45;3.08;;;14.30;85.80;;;;;;5045846;28;20032;-82
2021/06/11 01:28:36;;;;;;;7.40;3.78;;;14.30;84.40;;;;;;5075372;28;20076;-82
2021/06/11 01:31:02;;;;;;;4.63;3.25;;;14.20;85.30;;;;;;5049245;28;20032;-84
2021/06/11 01:33:31;;;;;;;8.23;3.60;;;14.30;85.10;;;;;;5049006;28;20078;-84
2021/06/11 01:36:19;;;;;;;4.25;3.63;;;14.20;84.30;;;;;;5056042;28;20159;-83
2021/06/11 01:38:47;;;;;;;5.97;3.83;;;14.30;85.20;;;;;;5053994;28;20147;-82
2021/06/11 01:41:17;;;;;;;9.25;5.43;;;14.20;85.40;;;;;;5053754;28;20077;-83
2021/06/11 01:43:44;;;;;;;6.35;3.70;;;14.00;86.20;;;;;;5064303;28;20499;-83
2021/06/11 01:46:16;;;;;;;7.47;3.85;;;14.00;86.30;;;;;;5050932;28;22013;-82
2021/06/11 01:48:44;;;;;;;6.30;4.32;;;14.00;86.60;;;;;;5049094;28;20360;-82
2021/06/11 01:51:11;;;;;;;5.32;4.35;;;13.90;86.30;;;;;;5071382;28;20058;-81
2021/06/11 01:53:40;;;;;;;4.82;3.45;;;14.00;86.00;;;;;;5069163;28;20032;-82
2021/06/11 01:56:07;;;;;;;4.90;3.40;;;14.00;85.80;;;;;;5051930;28;20044;-81
2021/06/11 01:58:35;;;;;;;5.28;3.70;;;14.00;86.40;;;;;;5070607;28;20043;-82
2021/06/11 02:01:00;;;;;;;4.97;3.47;;;14.00;86.50;;;;;;5050182;28;20541;-82
2021/06/11 02:03:27;;;;;;;6.97;3.97;;;14.00;85.30;;;;;;5051708;28;20078;-83
2021/06/11 02:05:54;;;;;;;4.80;3.80;;;13.90;86.50;;;;;;5075090;28;20033;-82
2021/06/11 02:08:21;;;;;;;5.15;4.05;;;13.80;86.20;;;;;;5051914;28;20016;-81
2021/06/11 02:10:47;;;;;;;6.80;4.10;;;13.80;86.20;;;;;;5067610;28;20053;-82
2021/06/11 02:13:13;;;;;;;4.95;3.85;;;13.70;86.30;;;;;;5057161;28;20032;-82
2021/06/11 02:15:40;;;;;;;4.13;3.60;;;13.70;86.90;;;;;;5057383;28;20094;-83
2021/06/11 02:18:08;;;;;;;4.93;3.78;;;13.70;86.70;;;;;;5051434;28;20029;-82
2021/06/11 02:20:34;;;;;;;4.53;3.47;;;13.80;85.50;;;;;;5051527;28;20028;-81
2021/06/11 02:23:00;;;;;;;4.97;3.40;;;13.80;85.10;;;;;;5073482;28;20294;-82
2021/06/11 02:25:27;;;;;;;6.78;3.13;;;13.80;84.80;;;;;;5053435;28;20147;-81
2021/06/11 02:27:55;;;;;;;5.93;3.90;;;13.80;84.50;;;;;;5054406;28;20112;-82
2021/06/11 02:30:21;;;;;;;6.75;3.75;;;13.80;85.20;;;;;;5052994;28;20078;-81
2021/06/11 02:32:47;;;;;;;6.78;3.70;;;13.80;85.10;;;;;;5050232;28;20028;-83
2021/06/11 02:35:19;;;;;;;4.43;3.60;;;13.80;84.70;;;;;;5067304;28;20076;-83
2021/06/11 02:37:46;;;;;;;4.93;3.85;;;13.80;85.00;;;;;;5068523;28;20027;-82
2021/06/11 02:40:13;;;;;;;5.78;3.70;;;13.90;85.10;;;;;;5050292;28;20078;-84
2021/06/11 02:42:41;;;;;;;4.25;3.58;;;13.90;85.30;;;;;;5070300;28;20021;-83
2021/06/11 02:45:11;;;;;;;5.03;3.60;;;13.80;85.30;;;;;;5071657;28;20088;-83
2021/06/11 02:48:09;;;;;;;3.85;3.25;;;13.80;85.20;;;;;;5066819;28;20033;-83
2021/06/11 02:50:49;;;;;;;5.88;3.70;;;13.70;86.10;;;;;;5049065;28;20391;-83
2021/06/11 02:53:25;;;;;;;8.60;4.18;;;13.70;86.30;;;;;;5052572;28;20028;-82
2021/06/11 02:55:58;;;;;;;5.10;3.85;;;13.60;86.60;;;;;;5073621;28;20070;-82
2021/06/11 02:58:32;;;;;;;6.00;3.47;;;13.70;86.60;;;;;;5071470;28;20048;-83
2021/06/11 03:01:01;;;;;;;5.68;3.85;;;13.80;86.10;;;;;;5053608;28;20033;-84
2021/06/11 03:03:29;;;;;;;4.35;3.60;;;13.80;86.80;;;;;;5077242;28;20085;-82
2021/06/11 03:05:59;;;;;;;4.60;3.92;;;13.70;86.80;;;;;;5074035;28;20036;-83
2021/06/11 03:08:29;;;;;;;6.32;3.97;;;13.70;86.50;;;;;;5058487;28;20032;-81
2021/06/11 03:11:02;;;;;;;4.80;4.07;;;13.70;86.50;;;;;;5052460;28;20035;-81
2021/06/11 03:13:29;;;;;;;4.90;3.53;;;13.80;86.20;;;;;;5072161;28;20035;-82
2021/06/11 03:15:57;;;;;;;4.47;3.67;;;13.80;86.00;;;;;;5054803;28;20060;-83
2021/06/11 03:18:22;;;;;;;5.55;4.00;;;13.80;85.90;;;;;;5073212;28;20726;-83
2021/06/11 03:20:52;;;;;;;4.85;3.70;;;13.80;85.80;;;;;;5055491;28;20029;-83
2021/06/11 03:23:23;;;;;;;4.38;3.53;;;13.70;86.20;;;;;;5053619;28;20071;-82
2021/06/11 03:25:51;;;;;;;5.10;3.70;;;13.70;86.10;;;;;;5059123;28;20095;-84
2021/06/11 03:28:29;;;;;;;;;;;13.70;86.50;;;;;;5060985;28;20028;-84
2021/06/11 03:30:59;;;;;;;7.53;4.38;;;13.60;86.70;;;;;;5066803;28;19920;-82
2021/06/11 03:33:33;;;;;;;5.90;3.78;;;13.60;87.70;;;;;;5067968;28;20017;-82
2021/06/11 03:36:05;;;;;;;6.05;3.80;;;13.50;87.30;;;;;;5054371;28;20024;-82
2021/06/11 03:38:32;;;;;;;5.88;3.83;;;13.50;87.60;;;;;;5060099;28;20462;-82
2021/06/11 03:41:00;;;;;;;4.72;3.60;;;13.50;87.50;;;;;;5049573;28;20082;-81
2021/06/11 03:43:28;;;;;;;5.03;3.67;;;13.50;87.30;;;;;;5056682;28;20113;-83
2021/06/11 03:45:57;;;;;;;7.00;4.18;;;13.60;86.80;;;;;;5070083;28;20029;-81
2021/06/11 03:48:27;;;;;;;5.63;3.97;;;13.70;87.30;;;;;;5061301;28;20024;-84
2021/06/11 03:50:53;;;;;;;7.35;4.05;;;13.70;87.20;;;;;;5073917;28;20025;-82
2021/06/11 03:53:23;;;;;;;5.72;3.88;;;13.80;87.10;;;;;;5076712;28;20028;-82
2021/06/11 03:55:54;;;;;;;5.10;3.60;;;13.80;86.40;;;;;;5057688;28;20098;-81
2021/06/11 03:58:27;;;;;;;6.38;4.10;;;13.90;87.10;;;;;;5078239;28;20033;-81
2021/06/11 04:00:56;;;;;;;6.35;4.30;;;13.90;87.00;;;;;;5058661;28;20090;-83
2021/06/11 04:03:22;;;;;;;8.30;4.30;;;14.00;86.50;;;;;;5073145;28;20036;-81
2021/06/11 04:05:55;;;;;;;11.70;4.75;;;14.00;86.70;;;;;;5076090;28;20078;-82
2021/06/11 04:08:23;;;;;;;8.00;5.25;;;14.10;86.70;;;;;;5076708;28;20049;-82
2021/06/11 04:10:56;;;;;;;6.50;4.95;;;14.20;86.60;;;;;;5054395;28;20021;-82
2021/06/11 04:13:48;;;;;;;6.28;4.60;;;14.20;87.00;;;;;;5065236;28;20510;-81
2021/06/11 04:16:19;;;;;;;6.38;4.20;;;14.30;87.00;;;;;;5054417;28;20037;-81
2021/06/11 04:18:46;;;;;;;5.93;4.78;;;14.30;86.40;;;;;;5057314;28;20627;-83
2021/06/11 04:21:19;;;;;;;6.63;4.47;;;14.40;86.20;;;;;;5075573;28;20036;-84
2021/06/11 04:23:45;;;;;;;7.88;4.60;;;14.40;86.20;;;;;;5072791;28;20028;-83
2021/06/11 04:26:13;;;;;;;7.60;5.00;;;14.50;85.80;;;;;;5074840;28;20035;-82
2021/06/11 04:28:41;;;;;;;8.38;4.50;;;14.60;85.80;;;;;;5054678;28;20100;-83
2021/06/11 04:31:07;;;;;;;9.35;5.03;;;14.60;85.80;;;;;;5072867;28;20052;-83
2021/06/11 04:33:32;;;;;;;6.57;4.93;;;14.70;85.70;;;;;;5056929;28;20042;-82
2021/06/11 04:35:59;;;;;;;6.93;4.47;;;14.70;86.00;;;;;;5050377;28;20029;-81
2021/06/11 04:38:25;;;;;;;5.63;4.50;;;14.70;85.90;;;;;;5075578;28;20027;-81
2021/06/11 04:40:51;;;;;;;7.22;4.53;;;14.80;85.30;;;;;;5053844;28;20032;-83
2021/06/11 04:43:21;;;;;;;6.78;4.80;;;14.80;85.80;;;;;;5071931;28;20032;-83
2021/06/11 04:45:46;;;;;;;7.70;5.05;;;14.90;85.50;;;;;;5059865;28;20025;-82
2021/06/11 04:48:12;;;;;;;8.00;4.57;;;15.00;85.50;;;;;;5065718;28;20073;-81
2021/06/11 04:50:38;;;;;;;7.35;4.90;;;15.00;85.30;;;;;;5057294;28;20074;-83
2021/06/11 04:53:03;;;;;;;6.90;4.50;;;15.10;85.80;;;;;;5072488;28;20028;-83
2021/06/11 04:55:29;;;;;;;7.25;5.18;;;15.10;86.00;;;;;;5054614;28;20045;-82
2021/06/11 04:57:56;;;;;;;7.50;4.70;;;15.20;85.70;;;;;;5076080;28;20025;-82
2021/06/11 05:00:24;;;;;;;7.75;4.68;;;15.30;85.30;;;;;;5072077;28;20029;-82
2021/06/11 05:02:50;;;;;;;10.60;4.93;;;15.40;85.70;;;;;;5048249;28;20035;-82
2021/06/11 05:05:16;;;;;;;6.68;5.25;;;15.40;85.60;;;;;;5066178;28;20029;-83
2021/06/11 05:07:41;;;;;;;7.32;4.90;;;15.50;85.30;;;;;;5068758;28;20021;-83
2021/06/11 05:10:11;;;;;;;8.98;6.30;;;15.60;85.80;;;;;;5071819;28;20060;-82
2021/06/11 05:12:37;;;;;;;8.18;5.18;;;15.60;85.40;;;;;;5057689;28;20032;-81
2021/06/11 05:15:04;;;;;;;6.65;4.90;;;15.70;85.20;;;;;;5064182;28;20028;-81
2021/06/11 05:17:29;;;;;;;7.30;5.30;;;15.80;85.80;;;;;;5054665;28;20386;-82
2021/06/11 05:19:55;;;;;;;5.88;4.78;;;15.80;85.10;;;;;;5053056;28;20025;-81
2021/06/11 05:22:21;;;;;;;6.63;4.65;;;15.90;85.10;;;;;;5052934;28;20487;-83
2021/06/11 05:24:47;;;;;;;7.57;4.75;;;16.00;84.60;;;;;;5066846;28;20036;-82
2021/06/11 05:27:13;;;;;;;7.40;5.55;;;16.00;84.00;;;;;;5047911;28;20037;-83
2021/06/11 05:29:39;;;;;;;6.35;4.93;;;16.10;85.40;;;;;;5068168;28;20089;-85
2021/06/11 05:32:06;;;;;;;7.82;4.95;;;16.20;84.40;;;;;;5049804;28;20048;-84
2021/06/11 05:34:31;;;;;;;8.23;5.82;;;16.20;84.10;;;;;;5050896;28;20027;-83
2021/06/11 05:36:57;;;;;;;9.13;5.55;;;16.30;84.40;;;;;;5052070;28;20052;-83
2021/06/11 05:39:23;;;;;;;6.82;5.10;;;16.40;84.20;;;;;;5070445;28;20028;-82
2021/06/11 05:41:48;;;;;;;7.18;5.63;;;16.40;83.80;;;;;;5071251;28;20029;-83
2021/06/11 05:44:14;;;;;;;8.05;5.38;;;16.50;84.10;;;;;;5041711;28;20032;-84
2021/06/11 05:46:40;;;;;;;6.45;4.80;;;16.60;83.80;;;;;;5053606;28;20074;-83
2021/06/11 05:49:05;;;;;;;10.88;5.80;;;16.60;83.20;;;;;;5073031;28;20095;-83
2021/06/11 05:51:31;;;;;;;7.43;4.90;;;16.70;83.30;;;;;;5049348;28;20040;-84
2021/06/11 05:53:58;;;;;;;7.82;5.45;;;16.80;83.10;;;;;;5064196;28;20399;-81
2021/06/11 05:56:24;;;;;;;6.82;5.40;;;16.90;83.00;;;;;;5051215;28;20025;-83
2021/06/11 05:58:49;;;;;;;7.00;4.80;;;16.90;82.30;;;;;;5073337;28;20538;-81
2021/06/11 06:01:15;;;;;;;7.03;5.18;;;17.00;82.10;;;;;;5069438;28;20495;-82
2021/06/11 06:03:42;;;;;;;7.35;5.28;;;17.00;81.60;;;;;;5080093;28;20085;-81
2021/06/11 06:06:08;;;;;;;9.43;5.32;;;17.10;82.00;;;;;;5060187;28;20457;-82
2021/06/11 06:08:33;;;;;;;7.40;5.13;;;17.20;81.50;;;;;;5067103;28;20078;-82
2021/06/11 06:10:59;;;;;;;8.02;5.43;;;17.30;81.30;;;;;;5068362;28;20074;-84
2021/06/11 06:13:25;;;;;;;9.68;5.75;;;17.30;80.90;;;;;;5048312;28;20024;-83
2021/06/11 06:15:50;;;;;;;7.95;5.22;;;17.30;81.10;;;;;;5063022;28;20029;-83
2021/06/11 06:18:16;;;;;;;8.00;5.75;;;17.40;81.20;;;;;;5068353;28;20521;-83
2021/06/11 06:20:46;;;;;;;7.20;4.93;;;17.50;81.10;;;;;;5062083;28;20017;-82
2021/06/11 06:23:12;;;;;;;6.63;5.28;;;17.50;81.50;;;;;;5063511;28;20473;-82
2021/06/11 06:25:37;;;;;;;6.88;5.00;;;17.70;80.80;;;;;;5048845;28;20090;-82
2021/06/11 06:28:04;;;;;;;7.97;5.22;;;17.80;80.90;;;;;;5065276;28;20028;-83
2021/06/11 06:30:30;;;;;;;7.35;5.00;;;17.80;80.50;;;;;;5064626;28;20028;-82
2021/06/11 06:32:56;;;;;;;7.63;4.90;;;18.00;79.50;;;;;;5069188;28;20028;-83
2021/06/11 06:35:22;;;;;;;7.00;5.28;;;18.00;78.50;;;;;;5064835;28;20032;-83
2021/06/11 06:37:48;;;;;;;7.00;4.80;;;18.10;78.70;;;;;;5066328;28;20443;-82
2021/06/11 06:40:14;;;;;;;6.70;4.68;;;18.10;77.70;;;;;;5054283;28;20548;-82
2021/06/11 06:42:41;;;;;;;6.47;4.50;;;18.30;79.90;;;;;;5051933;28;20021;-82
2021/06/11 06:45:15;;;;;;;9.15;5.13;;;18.40;79.30;;;;;;5052943;28;20744;-82
2021/06/11 06:47:46;;;;;;;7.65;4.97;;;18.50;76.90;;;;;;5052343;28;20036;-82
2021/06/11 06:50:19;;;;;;;6.47;4.80;;;18.50;76.60;;;;;;5051745;28;20027;-82
2021/06/11 06:52:46;;;;;;;7.43;5.13;;;18.60;78.70;;;;;;5074419;28;20105;-82
2021/06/11 06:55:12;;;;;;;6.90;5.32;;;18.80;77.70;;;;;;5069625;28;20013;-82
2021/06/11 06:57:38;;;;;;;6.55;5.32;;;18.70;75.80;;;;;;5074444;28;20059;-83
2021/06/11 07:00:06;;;;;;;7.85;5.13;;;18.80;77.20;;;;;;5066316;28;20096;-84
2021/06/11 07:02:32;;;;;;;8.20;5.00;;;19.00;77.00;;;;;;5046139;28;20425;-83
2021/06/11 07:04:57;;;;;;;6.82;4.75;;;19.00;76.50;;;;;;5075614;28;20028;-80
2021/06/11 07:07:23;;;;;;;7.60;5.55;;;19.10;74.90;;;;;;5068756;28;20040;-82
2021/06/11 07:09:49;;;;;;;5.55;4.68;;;19.10;75.40;;;;;;5067846;28;20021;-81
2021/06/11 07:12:15;;;;;;;7.32;4.65;;;19.20;74.00;;;;;;5053947;28;20082;-82
2021/06/11 07:14:40;;;;;;;6.40;5.03;;;19.30;74.20;;;;;;5066311;28;20082;-81
2021/06/11 07:17:06;;;;;;;6.22;4.93;;;19.30;72.90;;;;;;5065782;28;20125;-80
2021/06/11 07:19:32;;;;;;;7.32;4.60;;;19.30;73.10;;;;;;5075066;28;20025;-80
2021/06/11 07:21:58;;;;;;;6.13;4.25;;;19.30;73.60;;;;;;5052348;28;20043;-82
2021/06/11 07:24:24;;;;;;;5.22;4.03;;;19.30;70.50;;;;;;5062351;28;20024;-82
2021/06/11 07:26:50;;;;;;;6.50;4.43;;;19.40;72.50;;;;;;5043043;28;20044;-81
2021/06/11 07:29:16;;;;;;;5.10;4.00;;;19.40;70.50;;;;;;5065180;28;20134;-82
2021/06/11 07:31:42;;;;;;;6.53;4.95;;;19.50;70.60;;;;;;5066900;28;20031;-81
2021/06/11 07:34:07;;;;;;;4.93;4.35;;;19.60;72.00;;;;;;5051489;28;20021;-83
2021/06/11 07:36:33;;;;;;;4.47;3.67;;;19.60;70.30;;;;;;5043791;28;20050;-82
2021/06/11 07:38:59;;;;;;;4.00;3.55;;;19.60;70.50;;;;;;5048012;28;20107;-80
2021/06/11 07:41:25;;;;;;;7.95;3.92;;;19.80;69.90;;;;;;5059317;28;20131;-81
2021/06/11 07:43:50;;;;;;;4.82;4.32;;;19.90;70.20;;;;;;5067296;28;20040;-82
2021/06/11 07:46:17;;;;;;;3.90;3.50;;;19.90;68.60;;;;;;5053324;28;20021;-81
2021/06/11 07:48:43;;;;;;;5.78;4.90;;;20.00;66.90;;;;;;5046754;28;20028;-81
2021/06/11 07:51:09;;;;;;;4.78;3.92;;;20.10;67.80;;;;;;5064834;28;20036;-81
2021/06/11 07:53:35;;;;;;;3.97;3.58;;;20.10;66.30;;;;;;5070419;28;20032;-82
2021/06/11 07:56:02;;;;;;;3.67;3.38;;;20.10;65.40;;;;;;5049679;28;20032;-81
2021/06/11 07:58:27;;;;;;;4.88;4.00;;;20.10;67.20;;;;;;5064394;28;20440;-81
2021/06/11 08:00:53;;;;;;;4.28;3.72;;;20.30;67.00;;;;;;5066557;28;20045;-81
2021/06/11 08:03:19;;;;;;;5.18;4.10;;;20.40;66.60;;;;;;5051224;28;20430;-80
2021/06/11 08:05:44;;;;;;;4.95;4.00;;;20.50;67.10;;;;;;5066722;28;20463;-81
2021/06/11 08:08:10;;;;;;;5.57;4.22;;;20.70;67.50;;;;;;5049744;28;20075;-80
2021/06/11 08:10:36;;;;;;;6.28;3.75;;;20.70;65.30;;;;;;5068483;28;20027;-80
2021/06/11 08:13:06;;;;;;;4.25;3.85;;;20.80;67.40;;;;;;5067995;28;20036;-83
2021/06/11 08:15:32;;;;;;;3.78;3.42;;;20.80;66.10;;;;;;5050124;28;20029;-82
2021/06/11 08:17:57;;;;;;;5.22;4.15;;;20.80;65.80;;;;;;5071457;28;20399;-82
2021/06/11 08:20:24;;;;;;;4.97;4.07;;;20.90;67.00;;;;;;5067862;28;20021;-82
2021/06/11 08:22:49;;;;;;;4.95;4.05;;;21.00;65.30;;;;;;5070642;28;20581;-82
2021/06/11 08:25:16;;;;;;;4.13;3.72;;;21.00;64.70;;;;;;5069353;28;20040;-82
2021/06/11 08:27:41;;;;;;;3.78;3.33;;;21.00;63.80;;;;;;5062516;28;20371;-82
2021/06/11 08:30:09;;;;;;;4.88;3.70;;;21.00;63.50;;;;;;5065151;28;20031;-82
2021/06/11 08:32:36;;;;;;;4.53;3.45;;;21.00;63.50;;;;;;5065940;28;20490;-81
2021/06/11 08:35:04;;;;;;;5.10;3.90;;;21.00;60.00;;;;;;5047583;28;20484;-82
2021/06/11 08:37:29;;;;;;;3.80;3.17;;;21.00;63.20;;;;;;5045787;28;20670;-80
2021/06/11 08:39:57;;;;;;;4.22;3.47;;;21.00;62.80;;;;;;5065166;28;20126;-82
2021/06/11 08:42:31;;;;;;;4.07;3.50;;;21.00;62.70;;;;;;5044918;28;20395;-81
2021/06/11 08:45:08;;;;;;;3.78;3.40;;;21.20;62.70;;;;;;5053103;28;20028;-81
2021/06/11 08:47:35;;;;;;;5.32;3.13;;;21.40;61.70;;;;;;5061832;28;20056;-82
2021/06/11 08:50:01;;;;;;;4.13;3.38;;;21.30;60.50;;;;;;5051872;28;20035;-82
2021/06/11 08:52:28;;;;;;;4.03;3.47;;;21.40;59.50;;;;;;5049010;28;20017;-83
2021/06/11 08:54:54;;;;;;;4.00;3.47;;;21.40;60.20;;;;;;5065599;28;20016;-81
2021/06/11 08:57:21;;;;;;;5.13;3.22;;;21.40;63.30;;;;;;5065942;28;20036;-81
2021/06/11 08:59:48;;;;;;;3.90;3.50;;;21.50;56.60;;;;;;5066167;28;20032;-82
2021/06/11 09:02:14;;;;;;;4.13;3.45;;;21.50;58.90;;;;;;5048035;28;20120;-82
2021/06/11 09:04:54;;;;;;;5.40;3.65;;;21.60;61.90;;;;;;5069585;28;20033;-81
2021/06/11 09:07:27;;;;;;;6.05;3.10;;;21.60;56.10;;;;;;5071507;28;20120;-82
2021/06/11 09:09:59;;;;;;;4.35;3.38;;;21.60;57.10;;;;;;5048786;28;20020;-82
2021/06/11 09:12:38;;;;;;;4.40;3.15;;;21.70;60.60;;;;;;5045566;28;20505;-83
2021/06/11 09:15:07;;;;;;;3.75;3.35;;;21.70;57.40;;;;;;5064831;28;20368;-82
2021/06/11 09:17:36;;;;;;;3.35;3.03;;;21.70;55.40;;;;;;5042257;28;20116;-82
2021/06/11 09:20:06;;;;;;;3.80;3.35;;;21.80;54.70;;;;;;5046500;28;20187;-83
2021/06/11 09:22:47;;;;;;;3.80;3.40;;;21.80;60.10;;;;;;5063362;28;20418;-82
2021/06/11 09:25:31;;;;;;;4.78;3.42;;;22.00;54.60;;;;;;5043091;28;20061;-82
2021/06/11 09:28:01;;;;;;;3.53;3.22;;;21.90;56.30;;;;;;5061156;28;20507;-82
2021/06/11 09:30:38;;;;;;;4.20;3.50;;;21.90;57.50;;;;;;5046678;28;20039;-83
2021/06/11 09:33:06;;;;;;;3.53;3.17;;;22.00;56.20;;;;;;5065898;28;20025;-82
2021/06/11 09:35:39;;;;;;;4.72;3.80;;;21.90;52.80;;;;;;5071698;28;20706;-82
2021/06/11 09:38:13;;;;;;;4.82;3.72;;;22.10;58.90;;;;;;5061131;28;20039;-82
2021/06/11 09:40:44;;;;;;;7.10;4.85;;;22.10;55.60;;;;;;5045823;28;20024;-82
2021/06/11 09:43:10;;;;;;;5.55;4.78;;;22.10;55.60;;;;;;5066125;28;20033;-82
2021/06/11 09:45:36;;;;;;;4.78;4.38;;;22.10;57.40;;;;;;5063427;28;20080;-83
2021/06/11 09:48:14;;;;;;;6.32;4.75;;;22.20;53.70;;;;;;5065812;28;20039;-82
2021/06/11 09:50:40;;;;;;;6.15;4.53;;;22.30;56.10;;;;;;5063183;28;20028;-82
2021/06/11 09:53:06;;;;;;;6.20;4.60;;;22.40;57.10;;;;;;5063611;28;20093;-82
2021/06/11 09:55:43;;;;;;;7.03;4.97;;;22.40;54.90;;;;;;5063175;28;20098;-82
2021/06/11 09:58:17;;;;;;;5.53;4.80;;;22.40;57.00;;;;;;5044233;28;20032;-81
2021/06/11 10:00:49;;;;;;;6.50;4.75;;;22.40;55.80;;;;;;5045601;28;20748;-82
2021/06/11 10:03:28;;;;;;;4.55;4.07;;;22.70;58.10;;;;;;5047766;28;20029;-81
2021/06/11 10:05:56;;;;;;;6.55;4.25;;;22.90;52.80;;;;;;5062796;28;20072;-82
2021/06/11 10:08:23;;;;;;;7.15;4.40;;;23.00;54.50;;;;;;5038277;28;20719;-82
2021/06/11 10:10:51;;;;;;;4.97;4.47;;;23.10;54.60;;;;;;5056897;28;20017;-81
2021/06/11 10:13:17;;;;;;;4.93;4.43;;;23.20;55.20;;;;;;5064913;28;20024;-84
2021/06/11 10:15:46;;;;;;;7.47;4.00;;;23.20;54.60;;;;;;5045246;28;20498;-84
2021/06/11 10:18:13;;;;;;;5.07;3.75;;;23.40;56.70;;;;;;5047056;28;20032;-83
2021/06/11 10:20:40;;;;;;;6.13;4.73;;;23.40;52.40;;;;;;5042908;28;20036;-84
2021/06/11 10:23:08;;;;;;;;;;;23.50;54.00;;;;;;5045652;28;20115;-84
2021/06/11 10:25:35;;;;;;;6.07;4.50;;;23.40;50.70;;;;;;5045573;28;20597;-84
2021/06/11 10:28:02;;;;;;;4.97;4.15;;;23.40;52.20;;;;;;5043079;28;20124;-83
2021/06/11 10:30:29;;;;;;;5.45;4.40;;;23.40;52.50;;;;;;5042767;28;20054;-84
2021/06/11 10:32:56;;;;;;;4.85;4.03;;;23.50;54.70;;;;;;5041958;28;20170;-84
2021/06/11 10:35:47;;;;;;;4.82;4.32;;;23.60;50.90;;;;;;5040604;28;20032;-84
2021/06/11 10:38:35;;;;;;;5.13;4.40;;;23.60;52.00;;;;;;5067461;28;20073;-83
2021/06/11 10:41:03;;;;;;;4.90;4.40;;;23.70;51.30;;;;;;5046736;28;20039;-84
2021/06/11 10:43:37;;;;;;;5.63;3.70;;;23.70;52.30;;;;;;5041130;28;20021;-84
2021/06/11 10:46:19;;;;;;;5.72;4.18;;;23.80;52.80;;;;;;5042836;28;20033;-83
2021/06/11 10:49:11;;;;;;;4.35;3.95;;;24.00;53.00;;;;;;5062496;28;20045;-83
2021/06/11 10:51:46;;;;;;;5.32;4.28;;;23.90;52.00;;;;;;5041537;28;20083;-83
2021/06/11 10:54:15;;;;;;;4.20;3.80;;;23.80;52.90;;;;;;5041136;28;20025;-85
2021/06/11 10:56:56;;;;;;;5.32;3.65;;;23.80;50.40;;;;;;5047232;28;20024;-83
2021/06/11 10:59:35;;;;;;;5.25;4.05;;;23.80;50.50;;;;;;5061166;28;20043;-83
2021/06/11 11:02:01;;;;;;;4.10;3.53;;;23.90;51.40;;;;;;5054829;28;20031;-84
2021/06/11 11:04:30;;;;;;;4.90;3.70;;;24.00;45.80;;;;;;5060655;28;20444;-84
2021/06/11 11:06:56;;;;;;;4.05;3.65;;;24.00;52.10;;;;;;5047050;28;20020;-83
2021/06/11 11:09:53;;;;;;;5.07;3.90;;;24.00;50.70;;;;;;5034612;28;20104;-85
2021/06/11 11:12:29;;;;;;;5.05;3.90;;;24.00;51.20;;;;;;5041862;28;20520;-82
2021/06/11 11:14:56;;;;;;;4.00;3.53;;;24.00;50.10;;;;;;5060156;28;20041;-81
2021/06/11 11:17:22;;;;;;;4.35;3.63;;;23.90;50.70;;;;;;5071055;28;20393;-83
2021/06/11 11:19:51;;;;;;;6.72;4.10;;;24.00;51.70;;;;;;5042183;28;20029;-82
2021/06/11 11:22:28;;;;;;;6.38;4.20;;;23.90;51.50;;;;;;5053412;28;20105;-83
2021/06/11 11:24:55;;;;;;;3.72;3.42;;;23.70;50.30;;;;;;5052718;28;20029;-83
2021/06/11 11:27:21;;;;;;;5.10;4.13;;;23.60;51.20;;;;;;5058326;28;20104;-83
2021/06/11 11:29:48;;;;;;;4.50;3.55;;;23.70;50.80;;;;;;5052378;28;20028;-83
2021/06/11 11:32:14;;;;;;;4.43;3.47;;;23.50;50.80;;;;;;5048225;28;20028;-82
2021/06/11 11:34:40;;;;;;;3.88;3.50;;;23.60;50.40;;;;;;5047561;28;20024;-83
2021/06/11 11:37:05;;;;;;;3.58;3.28;;;23.80;52.60;;;;;;5066069;28;20025;-82
2021/06/11 11:39:31;;;;;;;4.05;3.53;;;23.90;51.10;;;;;;5063551;28;20452;-84
2021/06/11 11:41:57;;;;;;;3.78;3.40;;;24.00;51.30;;;;;;5046750;28;20047;-83
2021/06/11 11:44:26;;;;;;;4.32;3.70;;;24.10;52.00;;;;;;5069650;28;20028;-83
2021/06/11 11:46:54;;;;;;;4.28;3.70;;;24.10;51.10;;;;;;5064418;28;20021;-82
2021/06/11 11:49:20;;;;;;;;;;;24.20;50.90;;;;;;5044871;28;20071;-83
2021/06/11 11:51:45;;;;;;;4.28;3.78;;;24.20;52.60;;;;;;5060896;28;20039;-83
2021/06/11 11:54:11;;;;;;;3.90;3.50;;;24.20;51.00;;;;;;5062810;28;20099;-82
2021/06/11 11:56:37;;;;;;;5.43;3.53;;;24.20;52.10;;;;;;5050537;28;20136;-83
2021/06/11 11:59:06;;;;;;;4.18;3.53;;;24.20;53.20;;;;;;5044215;28;20043;-84
2021/06/11 12:01:39;;;;;;;4.88;3.80;;;24.30;49.30;;;;;;5047862;28;20118;-82
2021/06/11 12:04:05;;;;;;;5.68;4.07;;;24.30;50.40;;;;;;5047469;28;20387;-83
2021/06/11 12:06:31;;;;;;;5.43;4.18;;;24.30;51.30;;;;;;5051649;28;20039;-84
2021/06/11 12:08:56;;;;;;;4.82;3.83;;;24.30;51.80;;;;;;5063969;28;20032;-83
2021/06/11 12:11:22;;;;;;;4.13;3.72;;;24.20;51.20;;;;;;5044523;28;20364;-83
2021/06/11 12:13:48;;;;;;;4.20;3.80;;;24.10;51.00;;;;;;5041768;28;20068;-83
2021/06/11 12:16:15;;;;;;;4.22;3.63;;;24.00;51.80;;;;;;5042967;28;20033;-83
2021/06/11 12:18:41;;;;;;;4.27;3.67;;;23.80;49.00;;;;;;5046399;28;20032;-84
2021/06/11 12:21:08;;;;;;;3.92;3.63;;;23.80;51.40;;;;;;5068772;28;20066;-83
2021/06/11 12:23:34;;;;;;;;;;;23.90;49.60;;;;;;5047266;28;20040;-83
2021/06/11 12:26:00;;;;;;;4.78;3.25;;;23.90;51.10;;;;;;5048446;28;19912;-84
2021/06/11 12:28:26;;;;;;;4.75;3.78;;;23.80;53.90;;;;;;5049065;28;20029;-83
2021/06/11 12:30:51;;;;;;;3.90;3.60;;;23.70;53.60;;;;;;5043827;28;20426;-83
2021/06/11 12:33:17;;;;;;;4.20;3.67;;;23.70;54.00;;;;;;5069011;28;20073;-83
2021/06/11 12:35:43;;;;;;;3.95;3.65;;;23.60;53.70;;;;;;5063915;28;20040;-83
2021/06/11 12:38:09;;;;;;;4.20;3.80;;;23.60;55.70;;;;;;5047693;28;20425;-83
2021/06/11 12:40:37;;;;;;;4.65;3.95;;;23.70;55.60;;;;;;5047806;28;20024;-83
2021/06/11 12:43:05;;;;;;;4.88;4.00;;;23.70;53.80;;;;;;5046946;28;20021;-83
2021/06/11 12:45:32;;;;;;;5.72;3.47;;;23.70;53.60;;;;;;5049133;28;20100;-82
2021/06/11 12:47:58;;;;;;;4.40;3.80;;;23.70;53.20;;;;;;5045048;28;20059;-83
2021/06/11 12:50:24;;;;;;;4.97;3.60;;;23.70;53.40;;;;;;5050790;28;20016;-84
2021/06/11 12:52:50;;;;;;;3.85;3.53;;;23.70;51.30;;;;;;5049802;28;20029;-82
2021/06/11 12:55:16;;;;;;;4.03;3.63;;;23.80;53.30;;;;;;5063865;28;20051;-83